Time;durP1;ratioP1;P1;durP2;ratioP2;P2;SDS_P1;SDS_P2;PMS_P1;PMS_P2;Temp;Humidity;BMP_temperature;BMP_pressure;BME280_temperature;BME280_humidity;BME280_pressure;Samples;Min_cycle;Max_cycle;Signal;HPM_P1;HPM_P2
2023/12/14 00:01:14;;;;;;;8.82;5.40;;;10.80;61.10;;;;;;4983366;28;20074;-36
2023/12/14 00:03:42;;;;;;;6.03;4.47;;;10.80;60.90;;;;;;4987891;28;20073;-36
2023/12/14 00:06:11;;;;;;;9.40;4.85;;;10.80;60.80;;;;;;4982004;28;20058;-37
2023/12/14 00:08:38;;;;;;;10.48;5.15;;;10.80;60.60;;;;;;4988167;28;20061;-36
2023/12/14 00:11:06;;;;;;;10.32;5.40;;;10.80;60.30;;;;;;4984709;28;20430;-36
2023/12/14 00:13:33;;;;;;;12.85;6.53;;;10.80;60.10;;;;;;4986469;28;20055;-36
2023/12/14 00:16:01;;;;;;;11.52;5.80;;;10.80;59.90;;;;;;4985063;28;20427;-36
2023/12/14 00:18:28;;;;;;;10.77;6.25;;;10.80;59.90;;;;;;4983134;28;20054;-35
2023/12/14 00:20:56;;;;;;;10.60;6.00;;;10.80;59.80;;;;;;4989979;28;20051;-36
2023/12/14 00:23:25;;;;;;;10.32;5.90;;;10.80;59.70;;;;;;4989884;28;20503;-37
2023/12/14 00:25:52;;;;;;;13.18;5.85;;;10.80;59.70;;;;;;4988949;28;20054;-38
2023/12/14 00:28:19;;;;;;;12.05;5.53;;;10.80;59.70;;;;;;4980940;28;20050;-37
2023/12/14 00:30:46;;;;;;;7.80;4.63;;;10.80;59.70;;;;;;4989841;28;20054;-37
2023/12/14 00:33:13;;;;;;;10.65;5.20;;;10.80;59.80;;;;;;4986541;28;20525;-36
2023/12/14 00:35:41;;;;;;;7.68;5.20;;;10.80;59.90;;;;;;4982959;28;20062;-37
2023/12/14 00:38:08;;;;;;;10.60;5.75;;;10.80;60.00;;;;;;4986153;28;20086;-36
2023/12/14 00:40:36;;;;;;;11.27;5.60;;;10.80;60.00;;;;;;4984638;28;20434;-36
2023/12/14 00:43:04;;;;;;;7.97;5.13;;;10.80;60.10;;;;;;4983006;28;20058;-37
2023/12/14 00:45:31;;;;;;;9.75;5.55;;;10.80;60.20;;;;;;4982959;28;20077;-36
2023/12/14 00:47:58;;;;;;;11.32;5.43;;;10.80;60.20;;;;;;4981640;28;20065;-36
2023/12/14 00:50:25;;;;;;;13.30;5.70;;;10.80;60.20;;;;;;4982958;28;20057;-36
2023/12/14 00:52:52;;;;;;;8.57;4.93;;;10.80;60.30;;;;;;4981774;28;20597;-36
2023/12/14 00:55:20;;;;;;;8.52;4.68;;;10.80;60.30;;;;;;4986620;28;20069;-36
2023/12/14 00:57:49;;;;;;;11.32;4.55;;;10.80;60.30;;;;;;4979812;28;20054;-36
2023/12/14 01:00:17;;;;;;;8.25;4.80;;;10.90;60.50;;;;;;4982551;28;20055;-36
2023/12/14 01:02:44;;;;;;;7.78;5.10;;;10.90;60.50;;;;;;5018558;22;20053;-37
2023/12/14 01:05:11;;;;;;;10.38;4.38;;;10.90;60.50;;;;;;4991575;23;20062;-47
2023/12/14 01:07:38;;;;;;;12.65;5.00;;;10.90;60.60;;;;;;4980951;28;20065;-47
2023/12/14 01:10:07;;;;;;;13.55;5.72;;;10.90;60.60;;;;;;4985849;28;20054;-41
2023/12/14 01:12:34;;;;;;;14.30;6.13;;;11.00;61.70;;;;;;4980731;28;20057;-48
2023/12/14 01:15:03;;;;;;;18.80;6.40;;;11.00;61.40;;;;;;4983341;28;20586;-44
2023/12/14 01:17:30;;;;;;;19.15;7.07;;;11.00;61.80;;;;;;4980786;28;20047;-44
2023/12/14 01:19:57;;;;;;;15.02;5.63;;;11.00;61.90;;;;;;4981673;28;20494;-45
2023/12/14 01:22:24;;;;;;;17.45;6.30;;;11.00;61.90;;;;;;4982779;28;20046;-49
2023/12/14 01:24:52;;;;;;;20.92;7.60;;;11.10;62.00;;;;;;4985329;28;20058;-43
2023/12/14 01:27:19;;;;;;;16.40;7.78;;;11.10;62.10;;;;;;4980231;28;21652;-48
2023/12/14 01:29:46;;;;;;;17.95;8.43;;;11.10;62.20;;;;;;4980681;28;20399;-50
2023/12/14 01:32:15;;;;;;;19.52;9.75;;;11.10;62.30;;;;;;4985570;28;20050;-48
2023/12/14 01:34:42;;;;;;;21.15;10.60;;;11.10;62.50;;;;;;4978243;28;20490;-42
2023/12/14 01:37:10;;;;;;;18.25;10.65;;;11.20;62.70;;;;;;4983876;28;20521;-43
2023/12/14 01:39:37;;;;;;;22.85;12.07;;;11.20;62.70;;;;;;4977541;28;20058;-45
2023/12/14 01:44:37;;;;;;;29.70;13.23;;;11.20;62.90;;;;;;4964839;28;20080;-49
2023/12/14 01:47:05;;;;;;;28.70;13.32;;;11.30;63.00;;;;;;4969515;28;20478;-49
2023/12/14 01:49:33;;;;;;;31.50;15.85;;;11.30;63.10;;;;;;4970876;28;20042;-46
2023/12/14 01:52:01;;;;;;;48.60;17.25;;;11.30;63.30;;;;;;4967662;28;20510;-49
2023/12/14 01:54:28;;;;;;;33.40;16.25;;;11.30;63.30;;;;;;4967094;28;20054;-48
2023/12/14 01:56:55;;;;;;;37.92;16.70;;;11.30;63.40;;;;;;4966837;28;20054;-44
2023/12/14 01:59:22;;;;;;;34.67;16.17;;;11.30;63.40;;;;;;4964427;28;20489;-43
2023/12/14 02:01:56;;;;;;;41.63;17.52;;;11.40;63.50;;;;;;4968849;28;20081;-48
2023/12/14 02:04:24;;;;;;;34.23;15.83;;;11.40;63.60;;;;;;4963195;28;20062;-47
2023/12/14 02:07:14;;;;;;;59.30;17.40;;;11.40;63.50;;;;;;4966609;28;20059;-43
2023/12/14 02:09:42;;;;;;;49.00;19.98;;;11.40;63.70;;;;;;4966111;28;20418;-47
2023/12/14 02:12:09;;;;;;;31.63;17.50;;;11.40;63.60;;;;;;4963859;28;20059;-37
2023/12/14 02:14:36;;;;;;;31.95;17.73;;;11.40;63.60;;;;;;4964712;28;20059;-36
2023/12/14 02:17:04;;;;;;;38.03;18.15;;;11.40;63.70;;;;;;4964882;28;20050;-36
2023/12/14 02:19:31;;;;;;;46.80;18.60;;;11.40;64.40;;;;;;4967268;28;20055;-37
2023/12/14 02:21:58;;;;;;;42.17;16.17;;;11.50;63.80;;;;;;4965275;28;20061;-36
2023/12/14 02:24:27;;;;;;;83.20;15.15;;;11.50;63.70;;;;;;4965437;28;20063;-47
2023/12/14 02:26:54;;;;;;;44.13;14.32;;;11.50;63.50;;;;;;4967531;28;20047;-42
2023/12/14 02:29:21;;;;;;;48.83;17.27;;;11.50;63.30;;;;;;4966386;28;20364;-41
2023/12/14 02:31:48;;;;;;;37.97;16.52;;;11.50;63.30;;;;;;4964378;28;20483;-44
2023/12/14 02:34:16;;;;;;;36.17;16.50;;;11.50;63.30;;;;;;4967522;28;20513;-42
2023/12/14 02:36:43;;;;;;;39.63;17.27;;;11.50;63.30;;;;;;4965504;28;20051;-47
2023/12/14 02:39:10;;;;;;;53.60;18.42;;;11.50;63.30;;;;;;4964419;28;20051;-48
2023/12/14 02:41:38;;;;;;;43.17;18.58;;;11.50;63.30;;;;;;4965560;28;20070;-46
2023/12/14 02:44:05;;;;;;;77.93;20.38;;;11.50;63.40;;;;;;4962414;28;20535;-47
2023/12/14 02:46:33;;;;;;;110.35;20.50;;;11.60;63.60;;;;;;4964196;28;20506;-43
2023/12/14 02:49:00;;;;;;;38.50;19.80;;;11.60;63.60;;;;;;4965927;28;20058;-47
2023/12/14 02:51:27;;;;;;;181.23;21.75;;;11.60;63.60;;;;;;4964771;28;20055;-44
2023/12/14 02:53:57;;;;;;;90.85;20.85;;;11.60;63.70;;;;;;4963423;28;20057;-48
2023/12/14 02:56:24;;;;;;;221.35;22.77;;;11.60;63.80;;;;;;4963798;28;20050;-45
2023/12/14 02:58:53;;;;;;;292.83;20.20;;;11.60;63.90;;;;;;4964023;28;20061;-45
2023/12/14 03:01:21;;;;;;;63.85;16.90;;;11.60;63.70;;;;;;4962466;28;20066;-45
2023/12/14 03:03:48;;;;;;;77.25;19.73;;;11.60;63.40;;;;;;4965870;28;20043;-45
2023/12/14 03:06:15;;;;;;;150.48;21.92;;;11.60;63.40;;;;;;4964101;28;20483;-48
2023/12/14 03:08:42;;;;;;;78.32;21.42;;;11.60;63.50;;;;;;4962753;28;20062;-46
2023/12/14 03:11:10;;;;;;;127.57;24.80;;;11.60;63.80;;;;;;4965489;28;20063;-48
2023/12/14 03:13:37;;;;;;;62.58;22.60;;;11.60;63.90;;;;;;4965537;28;20081;-47
2023/12/14 03:16:07;;;;;;;201.30;26.00;;;11.60;64.00;;;;;;4966418;28;20956;-46
2023/12/14 03:18:34;;;;;;;195.35;25.25;;;11.60;64.20;;;;;;4968192;28;20058;-46
2023/12/14 03:21:01;;;;;;;57.38;24.63;;;11.50;64.20;;;;;;4968921;28;20057;-48
2023/12/14 03:23:28;;;;;;;144.70;24.50;;;11.50;64.30;;;;;;4965825;28;20061;-41
2023/12/14 03:25:55;;;;;;;165.43;23.73;;;11.50;64.40;;;;;;4965434;28;20066;-48
2023/12/14 03:28:23;;;;;;;211.45;23.70;;;11.50;64.30;;;;;;4964346;28;20057;-47
2023/12/14 03:30:50;;;;;;;221.60;22.55;;;11.40;64.20;;;;;;4968487;28;20061;-49
2023/12/14 03:33:18;;;;;;;145.48;23.75;;;11.40;64.10;;;;;;4967038;28;21006;-49
2023/12/14 03:35:46;;;;;;;126.25;20.85;;;11.40;64.10;;;;;;4965116;28;20058;-49
2023/12/14 03:38:14;;;;;;;156.50;22.38;;;11.40;64.10;;;;;;4966066;28;20051;-49
2023/12/14 03:40:41;;;;;;;129.88;22.30;;;11.40;64.10;;;;;;4965491;28;20405;-47
2023/12/14 03:43:08;;;;;;;65.60;22.02;;;11.40;64.20;;;;;;4965653;28;20059;-48
2023/12/14 03:45:35;;;;;;;50.10;22.63;;;11.40;64.20;;;;;;4967796;28;20410;-47
2023/12/14 03:48:03;;;;;;;48.40;24.15;;;11.40;64.40;;;;;;4962980;28;20506;-47
2023/12/14 03:50:32;;;;;;;44.63;23.90;;;11.30;64.60;;;;;;4965301;28;20422;-50
2023/12/14 03:52:59;;;;;;;45.50;23.33;;;11.30;64.80;;;;;;4963674;28;20051;-47
2023/12/14 03:58:49;;;;;;;163.57;26.05;;;11.30;65.30;;;;;;4966892;28;20047;-44
2023/12/14 04:01:18;;;;;;;298.52;28.10;;;11.30;65.20;;;;;;4967586;28;20058;-47
2023/12/14 04:03:45;;;;;;;149.95;26.33;;;11.30;65.40;;;;;;4963285;28;20061;-48
2023/12/14 04:06:14;;;;;;;79.53;25.08;;;11.30;65.50;;;;;;4967706;28;20050;-45
2023/12/14 04:08:41;;;;;;;55.42;23.95;;;11.30;65.70;;;;;;4967434;28;20526;-46
2023/12/14 04:11:09;;;;;;;76.65;25.15;;;11.30;65.70;;;;;;4963888;28;20063;-46
2023/12/14 04:13:38;;;;;;;54.65;24.70;;;11.30;65.80;;;;;;4964047;28;20050;-40
2023/12/14 04:16:06;;;;;;;87.50;24.33;;;11.30;65.90;;;;;;4967398;28;20050;-49
2023/12/14 04:18:34;;;;;;;50.13;24.15;;;11.30;65.80;;;;;;4967188;28;20429;-41
2023/12/14 04:21:01;;;;;;;54.85;23.70;;;11.40;65.80;;;;;;4968304;28;20051;-50
2023/12/14 04:23:29;;;;;;;51.55;23.00;;;11.30;65.90;;;;;;4965857;28;20058;-50
2023/12/14 04:25:56;;;;;;;47.90;23.27;;;11.30;66.00;;;;;;4964704;28;20050;-49
2023/12/14 04:28:24;;;;;;;44.58;21.88;;;11.30;65.90;;;;;;4964499;28;20050;-44
2023/12/14 04:30:51;;;;;;;43.03;21.23;;;11.30;65.90;;;;;;4962429;28;20465;-48
2023/12/14 04:33:18;;;;;;;40.28;19.58;;;11.30;66.00;;;;;;4966916;28;20368;-45
2023/12/14 04:35:45;;;;;;;36.63;20.58;;;11.30;66.10;;;;;;4964067;28;20065;-48
2023/12/14 04:38:12;;;;;;;36.78;19.60;;;11.30;66.20;;;;;;4967646;28;20517;-47
2023/12/14 04:40:41;;;;;;;42.15;20.60;;;11.20;66.20;;;;;;4969664;28;20051;-45
2023/12/14 04:43:08;;;;;;;43.38;20.95;;;11.20;66.30;;;;;;4962799;28;20063;-49
2023/12/14 04:45:35;;;;;;;40.38;19.92;;;11.20;66.40;;;;;;4967845;28;20050;-49
2023/12/14 04:48:02;;;;;;;45.47;21.25;;;11.20;66.40;;;;;;4968675;28;20055;-46
2023/12/14 04:50:29;;;;;;;47.58;21.25;;;11.10;66.70;;;;;;4963172;28;20058;-49
2023/12/14 04:52:57;;;;;;;47.05;21.42;;;11.10;66.70;;;;;;4965007;28;20058;-36
2023/12/14 04:55:24;;;;;;;49.45;19.65;;;11.10;67.00;;;;;;4971457;28;20513;-37
2023/12/14 04:57:52;;;;;;;41.90;21.65;;;11.10;67.00;;;;;;4961018;28;20051;-37
2023/12/14 05:00:20;;;;;;;41.97;21.67;;;11.10;67.10;;;;;;4965430;28;20054;-37
2023/12/14 05:02:49;;;;;;;39.90;20.73;;;11.10;67.10;;;;;;4975289;28;20055;-36
2023/12/14 05:05:16;;;;;;;40.83;21.63;;;11.10;67.20;;;;;;4970712;28;20296;-36
2023/12/14 05:07:43;;;;;;;37.83;19.40;;;11.00;67.20;;;;;;4970583;28;20054;-37
2023/12/14 05:10:11;;;;;;;51.55;21.27;;;11.00;67.10;;;;;;4970051;28;20135;-36
2023/12/14 05:12:38;;;;;;;47.95;22.35;;;11.00;67.20;;;;;;4970945;28;20053;-36
2023/12/14 05:15:08;;;;;;;43.13;23.60;;;11.00;67.20;;;;;;4985275;28;20134;-37
2023/12/14 05:17:36;;;;;;;40.28;22.67;;;11.00;67.10;;;;;;4986624;28;20057;-36
2023/12/14 05:20:05;;;;;;;38.63;22.80;;;11.00;67.10;;;;;;4988968;28;20054;-37
2023/12/14 05:22:32;;;;;;;35.97;21.50;;;11.00;67.00;;;;;;4988838;28;20061;-37
2023/12/14 05:24:59;;;;;;;37.10;20.50;;;11.00;66.70;;;;;;4988807;28;20046;-36
2023/12/14 05:27:26;;;;;;;33.78;20.85;;;10.90;66.60;;;;;;4986028;28;20375;-36
2023/12/14 05:29:53;;;;;;;35.83;20.98;;;11.00;66.70;;;;;;4993537;28;20049;-37
2023/12/14 05:32:22;;;;;;;32.05;18.70;;;10.90;66.50;;;;;;4990697;28;20246;-37
2023/12/14 05:34:49;;;;;;;30.75;18.55;;;10.90;66.50;;;;;;4994286;28;20050;-36
2023/12/14 05:37:16;;;;;;;33.47;18.90;;;10.90;66.40;;;;;;4993347;28;20129;-36
2023/12/14 05:39:45;;;;;;;29.90;17.40;;;10.90;66.40;;;;;;4991506;28;20054;-37
2023/12/14 05:42:12;;;;;;;32.15;18.52;;;10.90;66.50;;;;;;4991418;28;20061;-37
2023/12/14 05:44:39;;;;;;;27.83;16.70;;;10.90;66.50;;;;;;4991063;28;20057;-36
2023/12/14 05:47:07;;;;;;;29.10;17.42;;;10.90;66.60;;;;;;4990890;28;20508;-37
2023/12/14 05:49:35;;;;;;;30.75;16.58;;;10.90;66.50;;;;;;4989065;28;20057;-36
2023/12/14 05:52:02;;;;;;;25.48;15.50;;;10.80;66.40;;;;;;4993515;28;20054;-36
2023/12/14 05:54:30;;;;;;;24.23;14.30;;;10.90;66.50;;;;;;4990813;28;20084;-36
2023/12/14 05:56:57;;;;;;;21.05;12.60;;;10.80;66.30;;;;;;4990060;28;20054;-37
2023/12/14 05:59:24;;;;;;;18.67;11.18;;;10.80;66.20;;;;;;4990433;28;20411;-36
2023/12/14 06:01:57;;;;;;;19.90;11.52;;;10.80;66.10;;;;;;4991826;28;20065;-36
2023/12/14 06:04:27;;;;;;;19.13;11.00;;;10.80;66.10;;;;;;4992717;28;20410;-37
2023/12/14 06:06:55;;;;;;;13.85;9.35;;;10.80;66.10;;;;;;4989952;28;20053;-36
2023/12/14 06:09:26;;;;;;;16.48;9.13;;;10.80;66.00;;;;;;4990161;28;20050;-36
2023/12/14 06:11:53;;;;;;;14.30;9.43;;;10.80;65.70;;;;;;4991121;28;20050;-37
2023/12/14 06:14:20;;;;;;;17.02;8.65;;;10.80;65.40;;;;;;4988791;28;20406;-37
2023/12/14 06:16:48;;;;;;;13.88;8.55;;;10.80;65.50;;;;;;4991413;28;20053;-36
2023/12/14 06:19:15;;;;;;;14.90;9.32;;;10.80;65.50;;;;;;4989699;28;20046;-37
2023/12/14 06:21:42;;;;;;;15.30;10.55;;;10.80;65.60;;;;;;4992168;28;20057;-37
2023/12/14 06:24:11;;;;;;;21.33;10.50;;;10.70;65.40;;;;;;4989354;28;20062;-37
2023/12/14 06:26:42;;;;;;;16.83;11.35;;;10.70;65.30;;;;;;4993611;28;20046;-37
2023/12/14 06:29:10;;;;;;;18.33;11.85;;;10.70;65.20;;;;;;4992479;28;20046;-37
2023/12/14 06:31:37;;;;;;;20.63;12.90;;;10.70;65.30;;;;;;4990539;28;20056;-36
2023/12/14 06:34:05;;;;;;;22.10;14.25;;;10.70;65.30;;;;;;4987812;28;20046;-36
2023/12/14 06:36:33;;;;;;;28.05;15.20;;;10.80;65.40;;;;;;4991997;28;20061;-37
2023/12/14 06:39:01;;;;;;;26.70;15.75;;;10.70;65.30;;;;;;4991562;28;20046;-36
2023/12/14 06:41:30;;;;;;;26.38;16.40;;;10.70;65.30;;;;;;4988365;28;20058;-37
2023/12/14 06:43:57;;;;;;;30.08;16.45;;;10.70;65.30;;;;;;4993480;28;20059;-36
2023/12/14 06:46:24;;;;;;;26.42;16.88;;;10.70;65.20;;;;;;4988322;28;20049;-37
2023/12/14 06:48:53;;;;;;;31.65;17.42;;;10.70;65.20;;;;;;4993699;28;20057;-36
2023/12/14 06:51:20;;;;;;;31.17;19.17;;;10.70;65.20;;;;;;4993896;28;20065;-37
2023/12/14 06:53:48;;;;;;;40.85;18.58;;;10.70;65.30;;;;;;4999415;28;20054;-36
2023/12/14 06:56:15;;;;;;;46.83;20.25;;;10.70;65.30;;;;;;4999716;28;20486;-36
2023/12/14 06:58:45;;;;;;;41.17;19.67;;;10.70;65.50;;;;;;4995592;28;20486;-36
2023/12/14 07:01:14;;;;;;;156.70;24.17;;;10.60;65.60;;;;;;4994737;28;20046;-36
2023/12/14 07:03:43;;;;;;;36.17;19.95;;;10.60;65.70;;;;;;4993111;28;20487;-37
2023/12/14 07:06:13;;;;;;;58.67;20.52;;;10.60;65.90;;;;;;4992350;28;20051;-37
2023/12/14 07:08:41;;;;;;;42.80;22.65;;;10.60;66.00;;;;;;4994377;28;20050;-36
2023/12/14 07:11:08;;;;;;;38.38;22.92;;;10.60;66.10;;;;;;4992898;28;20055;-36
2023/12/14 07:13:37;;;;;;;50.45;25.88;;;10.50;66.00;;;;;;4991025;28;20054;-40
2023/12/14 07:16:08;;;;;;;42.33;24.15;;;10.50;66.00;;;;;;4991569;28;20065;-42
2023/12/14 07:18:35;;;;;;;50.13;25.13;;;10.50;65.90;;;;;;4987387;28;20417;-46
2023/12/14 07:21:03;;;;;;;44.70;25.95;;;10.50;65.90;;;;;;4991325;28;20057;-46
2023/12/14 07:23:30;;;;;;;47.40;26.55;;;10.50;65.90;;;;;;4993635;28;20059;-49
2023/12/14 07:25:57;;;;;;;49.28;25.73;;;10.50;65.80;;;;;;4994120;28;20054;-50
2023/12/14 07:28:25;;;;;;;56.05;26.13;;;10.50;65.80;;;;;;4990187;28;20058;-48
2023/12/14 07:30:52;;;;;;;50.72;25.58;;;10.50;65.80;;;;;;4991636;28;20050;-49
2023/12/14 07:33:21;;;;;;;50.92;27.10;;;10.50;65.90;;;;;;4992226;28;20058;-47
2023/12/14 07:35:48;;;;;;;61.45;28.30;;;10.40;65.90;;;;;;4992122;28;20050;-49
2023/12/14 07:38:15;;;;;;;47.95;25.85;;;10.40;65.90;;;;;;4991879;28;20054;-50
2023/12/14 07:40:43;;;;;;;68.90;27.52;;;10.40;66.00;;;;;;4991850;28;20057;-51
2023/12/14 07:43:10;;;;;;;50.03;27.25;;;10.40;66.00;;;;;;4989523;28;20065;-46
2023/12/14 07:45:37;;;;;;;66.47;27.70;;;10.40;66.10;;;;;;4991837;28;20062;-43
2023/12/14 07:48:05;;;;;;;52.28;26.17;;;10.40;66.10;;;;;;4989354;28;20057;-49
2023/12/14 07:50:33;;;;;;;49.10;25.45;;;10.30;66.10;;;;;;4991665;28;20065;-50
2023/12/14 07:53:00;;;;;;;52.25;26.20;;;10.30;66.10;;;;;;4990559;28;20062;-50
2023/12/14 07:55:28;;;;;;;52.65;25.17;;;10.30;66.10;;;;;;4991883;28;20054;-49
2023/12/14 07:57:56;;;;;;;51.05;25.48;;;10.30;66.20;;;;;;4994074;28;20054;-48
2023/12/14 08:00:23;;;;;;;70.93;26.13;;;10.40;66.40;;;;;;4991486;28;20061;-47
2023/12/14 08:02:50;;;;;;;69.32;26.92;;;10.30;66.20;;;;;;4992755;28;20061;-50
2023/12/14 08:05:17;;;;;;;50.35;25.80;;;10.30;66.20;;;;;;4992263;28;20510;-49
2023/12/14 08:07:47;;;;;;;58.00;27.23;;;10.40;66.30;;;;;;4991372;28;20074;-46
2023/12/14 08:10:15;;;;;;;57.58;27.70;;;10.30;66.30;;;;;;4990956;28;20388;-48
2023/12/14 08:12:42;;;;;;;47.47;26.25;;;10.30;66.20;;;;;;4987923;28;20046;-45
2023/12/14 08:15:11;;;;;;;59.63;27.73;;;10.30;66.20;;;;;;4992001;28;20513;-46
2023/12/14 08:17:39;;;;;;;60.38;29.13;;;10.30;66.10;;;;;;4991282;28;20477;-47
2023/12/14 08:20:08;;;;;;;64.90;30.40;;;10.20;65.90;;;;;;4990544;28;20057;-49
2023/12/14 08:22:36;;;;;;;56.63;28.58;;;10.20;66.00;;;;;;4991161;28;20050;-46
2023/12/14 08:25:05;;;;;;;60.33;30.23;;;10.30;66.10;;;;;;4990732;28;20065;-47
2023/12/14 08:27:32;;;;;;;64.05;32.17;;;10.20;66.20;;;;;;4989260;28;20050;-44
2023/12/14 08:29:59;;;;;;;66.65;31.23;;;10.20;66.20;;;;;;4990543;28;20069;-47
2023/12/14 08:32:27;;;;;;;66.40;31.63;;;10.20;66.30;;;;;;4993484;28;20058;-49
2023/12/14 08:34:54;;;;;;;67.43;30.50;;;10.20;66.20;;;;;;4988601;28;20054;-48
2023/12/14 08:37:21;;;;;;;83.10;32.13;;;10.20;66.30;;;;;;4990823;28;20062;-49
2023/12/14 08:39:48;;;;;;;77.70;30.02;;;10.10;66.30;;;;;;4985059;28;21886;-46
2023/12/14 08:42:17;;;;;;;71.18;31.42;;;10.10;66.30;;;;;;4987340;28;20069;-48
2023/12/14 08:44:44;;;;;;;87.78;30.73;;;10.10;66.50;;;;;;4985910;28;20046;-49
2023/12/14 08:47:11;;;;;;;95.95;30.90;;;10.00;66.50;;;;;;4988502;28;20054;-47
2023/12/14 08:49:38;;;;;;;57.58;29.08;;;10.00;66.60;;;;;;4986681;28;20046;-46
2023/12/14 08:52:06;;;;;;;58.30;27.02;;;9.90;67.40;;;;;;4988098;28;20057;-49
2023/12/14 08:54:33;;;;;;;53.80;28.17;;;9.90;66.90;;;;;;4985577;28;20069;-44
2023/12/14 08:57:01;;;;;;;48.45;25.40;;;9.90;67.00;;;;;;4980464;28;20550;-50
2023/12/14 08:59:30;;;;;;;56.38;26.52;;;9.90;67.20;;;;;;4986811;28;20491;-46
2023/12/14 09:01:57;;;;;;;57.55;24.17;;;9.90;67.40;;;;;;4988096;28;20046;-47
2023/12/14 09:04:24;;;;;;;58.75;25.17;;;9.90;67.50;;;;;;4987914;28;20057;-47
2023/12/14 09:06:51;;;;;;;44.08;23.42;;;9.90;67.40;;;;;;4986772;28;20061;-44
2023/12/14 09:09:19;;;;;;;50.15;23.58;;;9.90;67.40;;;;;;4986038;28;20046;-46
2023/12/14 09:11:46;;;;;;;59.33;23.02;;;9.90;67.30;;;;;;4986705;28;20054;-49
2023/12/14 09:14:13;;;;;;;54.53;24.20;;;9.90;67.30;;;;;;4985525;28;20093;-50
2023/12/14 09:16:42;;;;;;;49.97;24.35;;;9.90;67.40;;;;;;4985518;28;20050;-49
2023/12/14 09:19:10;;;;;;;46.45;23.08;;;9.90;67.30;;;;;;4986753;28;20054;-48
2023/12/14 09:21:37;;;;;;;41.13;21.55;;;9.90;67.30;;;;;;4988472;28;20402;-46
2023/12/14 09:24:05;;;;;;;44.88;21.60;;;9.90;67.30;;;;;;4983341;28;20057;-46
2023/12/14 09:26:32;;;;;;;44.70;21.98;;;9.90;67.20;;;;;;4993003;28;20054;-44
2023/12/14 09:28:59;;;;;;;40.45;20.73;;;9.90;67.10;;;;;;4989386;28;20050;-46
2023/12/14 09:31:27;;;;;;;34.97;17.77;;;9.90;67.10;;;;;;4990961;28;20057;-44
2023/12/14 09:33:55;;;;;;;32.28;16.55;;;9.90;67.00;;;;;;4987045;28;20054;-48
2023/12/14 09:36:22;;;;;;;32.85;16.15;;;9.90;67.10;;;;;;4991481;28;20054;-48
2023/12/14 09:38:50;;;;;;;37.80;18.08;;;9.90;67.10;;;;;;4990733;28;20379;-49
2023/12/14 09:41:18;;;;;;;36.45;19.67;;;10.00;67.20;;;;;;4991369;28;20054;-50
2023/12/14 09:43:46;;;;;;;40.45;20.25;;;10.00;67.10;;;;;;4988989;28;20533;-46
2023/12/14 09:46:15;;;;;;;42.75;21.67;;;10.00;67.00;;;;;;4987964;28;20395;-48
2023/12/14 09:48:42;;;;;;;42.20;21.80;;;9.90;66.70;;;;;;4989190;28;20073;-47
2023/12/14 09:51:12;;;;;;;43.90;23.17;;;9.90;66.70;;;;;;4991825;28;20058;-49
2023/12/14 09:53:40;;;;;;;48.70;23.60;;;9.90;66.70;;;;;;4990866;28;20054;-49
2023/12/14 09:56:08;;;;;;;49.42;23.70;;;9.90;66.60;;;;;;4991115;28;20050;-50
2023/12/14 09:58:35;;;;;;;54.67;24.35;;;9.80;66.70;;;;;;4988434;28;20054;-49
2023/12/14 10:01:04;;;;;;;68.72;24.02;;;9.80;66.80;;;;;;4989446;28;20474;-46
2023/12/14 10:03:32;;;;;;;56.10;22.48;;;9.80;66.80;;;;;;4990563;28;20058;-47
2023/12/14 10:06:01;;;;;;;60.47;21.75;;;9.80;66.90;;;;;;4989909;28;20053;-48
2023/12/14 10:08:30;;;;;;;68.20;24.17;;;9.80;67.10;;;;;;4990012;28;20503;-49
2023/12/14 10:10:57;;;;;;;56.38;24.10;;;9.80;67.10;;;;;;4990695;28;20054;-50
2023/12/14 10:13:39;;;;;;;54.92;24.40;;;9.80;67.00;;;;;;4988114;28;20065;-47
2023/12/14 10:16:07;;;;;;;49.38;23.85;;;9.80;67.00;;;;;;4989847;28;20054;-50
2023/12/14 10:18:36;;;;;;;45.55;24.02;;;9.80;66.90;;;;;;4990024;28;20062;-47
2023/12/14 10:21:03;;;;;;;45.53;22.05;;;9.80;66.80;;;;;;4985394;28;20053;-50
2023/12/14 10:23:32;;;;;;;40.95;20.33;;;9.80;67.00;;;;;;4993507;28;20054;-48
2023/12/14 10:26:00;;;;;;;34.72;18.92;;;9.80;67.10;;;;;;4989858;28;20593;-50
2023/12/14 10:28:28;;;;;;;51.13;20.38;;;9.80;67.20;;;;;;4988895;28;20058;-49
2023/12/14 10:30:55;;;;;;;37.97;18.58;;;9.80;67.20;;;;;;4989809;28;20053;-51
2023/12/14 10:33:23;;;;;;;37.63;18.13;;;9.80;67.00;;;;;;4995978;28;20054;-47
2023/12/14 10:35:51;;;;;;;38.88;17.80;;;9.70;66.90;;;;;;4990777;28;20059;-48
2023/12/14 10:38:20;;;;;;;32.58;15.98;;;9.70;67.00;;;;;;4988665;28;20065;-50
2023/12/14 10:40:49;;;;;;;31.83;15.38;;;9.70;67.10;;;;;;4991081;28;20495;-50
2023/12/14 10:43:17;;;;;;;27.10;13.85;;;9.70;67.10;;;;;;4986451;28;20054;-49
2023/12/14 10:45:47;;;;;;;31.65;14.85;;;9.70;67.10;;;;;;4989644;28;20054;-36
2023/12/14 10:48:15;;;;;;;23.30;12.60;;;9.70;67.10;;;;;;4989005;28;20062;-37
2023/12/14 10:50:44;;;;;;;27.35;13.77;;;9.70;67.10;;;;;;4990122;28;20449;-36
2023/12/14 10:53:11;;;;;;;29.10;15.05;;;9.70;67.30;;;;;;4988177;28;20054;-36
2023/12/14 10:55:45;;;;;;;26.65;14.57;;;9.70;67.40;;;;;;4989204;28;20054;-36
2023/12/14 10:58:15;;;;;;;28.25;14.00;;;9.70;67.50;;;;;;4987090;28;20699;-36
2023/12/14 11:00:44;;;;;;;28.77;13.98;;;9.80;67.60;;;;;;4988286;28;20046;-36
2023/12/14 11:03:17;;;;;;;28.23;14.95;;;9.80;67.60;;;;;;4989238;28;20383;-36
2023/12/14 11:05:45;;;;;;;29.17;14.65;;;9.80;67.40;;;;;;4973306;28;20059;-36
2023/12/14 11:08:14;;;;;;;27.55;14.05;;;9.80;67.40;;;;;;4988308;28;20482;-37
2023/12/14 11:10:43;;;;;;;27.00;14.25;;;9.80;67.50;;;;;;4988405;28;20046;-36
2023/12/14 11:13:14;;;;;;;25.23;13.65;;;9.80;67.40;;;;;;4985767;28;20053;-36
2023/12/14 11:15:50;;;;;;;29.20;15.00;;;9.90;67.30;;;;;;4988461;28;20050;-36
2023/12/14 11:18:27;;;;;;;26.75;14.30;;;9.90;67.00;;;;;;4988477;28;20066;-36
2023/12/14 11:20:57;;;;;;;28.95;15.25;;;9.90;66.80;;;;;;4985642;28;20050;-37
2023/12/14 11:23:35;;;;;;;27.98;14.90;;;9.90;66.60;;;;;;4987912;28;20057;-37
2023/12/14 11:26:06;;;;;;;26.05;14.48;;;9.90;66.50;;;;;;4985316;28;20054;-36
2023/12/14 11:28:36;;;;;;;27.35;14.75;;;9.90;66.30;;;;;;4986157;28;20052;-36
2023/12/14 11:31:06;;;;;;;27.20;14.20;;;9.90;66.00;;;;;;4988099;28;20058;-37
2023/12/14 11:33:35;;;;;;;33.35;15.38;;;9.80;65.90;;;;;;4991786;28;20054;-36
2023/12/14 11:36:04;;;;;;;25.88;14.52;;;9.80;66.00;;;;;;4991265;28;20078;-37
2023/12/14 11:38:32;;;;;;;31.10;15.45;;;9.80;66.10;;;;;;4991673;28;20422;-36
2023/12/14 11:41:00;;;;;;;26.83;14.85;;;9.80;66.10;;;;;;4978568;28;20478;-36
2023/12/14 11:43:29;;;;;;;24.83;14.25;;;9.70;65.90;;;;;;4989676;28;20060;-36
2023/12/14 11:45:56;;;;;;;20.42;12.68;;;9.70;66.00;;;;;;4991372;28;20422;-37
2023/12/14 11:48:25;;;;;;;19.80;12.13;;;9.70;66.00;;;;;;4991442;28;20422;-37
2023/12/14 11:50:53;;;;;;;18.63;11.82;;;9.70;66.20;;;;;;4992840;28;20050;-37
2023/12/14 11:53:21;;;;;;;21.15;12.40;;;9.70;66.20;;;;;;4991907;28;20069;-37
2023/12/14 11:55:49;;;;;;;22.92;13.07;;;9.60;66.20;;;;;;4991107;28;20126;-37
2023/12/14 11:58:17;;;;;;;22.08;12.27;;;9.60;66.20;;;;;;4993266;28;20057;-37
2023/12/14 12:00:46;;;;;;;20.63;12.23;;;9.60;66.30;;;;;;4991998;28;20061;-37
2023/12/14 12:03:15;;;;;;;20.13;11.82;;;9.60;66.50;;;;;;4990465;28;20050;-37
2023/12/14 12:05:46;;;;;;;20.77;11.93;;;9.60;66.50;;;;;;4991322;28;20058;-37
2023/12/14 12:08:15;;;;;;;21.77;12.35;;;9.60;66.50;;;;;;4990190;28;20058;-37
2023/12/14 12:10:44;;;;;;;20.48;11.65;;;9.60;66.50;;;;;;4991033;28;20058;-37
2023/12/14 12:13:14;;;;;;;23.90;14.15;;;9.60;66.60;;;;;;4989338;28;20054;-36
2023/12/14 12:15:41;;;;;;;25.63;12.35;;;9.60;66.60;;;;;;4990946;28;20065;-37
2023/12/14 12:18:10;;;;;;;25.08;13.48;;;9.70;66.70;;;;;;4991656;28;20525;-37
2023/12/14 12:20:38;;;;;;;28.48;14.77;;;9.60;66.40;;;;;;4989463;28;20054;-37
2023/12/14 12:23:07;;;;;;;27.52;15.60;;;9.70;66.50;;;;;;4991837;28;20057;-36
2023/12/14 12:25:34;;;;;;;28.27;15.85;;;9.70;66.40;;;;;;4992063;28;20422;-37
2023/12/14 12:28:03;;;;;;;30.38;16.42;;;9.70;66.20;;;;;;4990993;28;20050;-36
2023/12/14 12:30:31;;;;;;;25.42;14.93;;;9.70;66.10;;;;;;4990887;28;20061;-36
2023/12/14 12:33:00;;;;;;;27.83;16.40;;;9.70;66.20;;;;;;4995345;28;20057;-36
2023/12/14 12:35:30;;;;;;;33.67;19.27;;;9.70;66.30;;;;;;4993857;28;20077;-37
2023/12/14 12:37:57;;;;;;;36.20;20.77;;;9.70;66.40;;;;;;4992611;28;20054;-37
2023/12/14 12:40:27;;;;;;;37.95;21.20;;;9.70;66.40;;;;;;4992631;28;20383;-37